sensor_id;sensor_type;location;lat;lon;timestamp;P1;durP1;ratioP1;P2;durP2;ratioP2
16922;SDS011;8578;50.938;13.556;2022-11-18T00:01:21;4.00;;;2.43;;
16922;SDS011;8578;50.938;13.556;2022-11-18T00:03:49;4.47;;;2.50;;
16922;SDS011;8578;50.938;13.556;2022-11-18T00:06:19;5.07;;;2.73;;
16922;SDS011;8578;50.938;13.556;2022-11-18T00:08:47;4.73;;;2.80;;
16922;SDS011;8578;50.938;13.556;2022-11-18T00:11:16;4.13;;;2.50;;
16922;SDS011;8578;50.938;13.556;2022-11-18T00:14:05;4.43;;;2.53;;
16922;SDS011;8578;50.938;13.556;2022-11-18T00:16:44;4.10;;;2.53;;
16922;SDS011;8578;50.938;13.556;2022-11-18T00:19:11;4.03;;;2.80;;
16922;SDS011;8578;50.938;13.556;2022-11-18T00:21:41;5.80;;;2.77;;
16922;SDS011;8578;50.938;13.556;2022-11-18T00:24:08;5.73;;;2.73;;
16922;SDS011;8578;50.938;13.556;2022-11-18T00:26:36;3.80;;;2.80;;
16922;SDS011;8578;50.938;13.556;2022-11-18T00:29:04;4.57;;;2.60;;
16922;SDS011;8578;50.938;13.556;2022-11-18T00:31:31;2.93;;;1.90;;
16922;SDS011;8578;50.938;13.556;2022-11-18T00:33:58;3.50;;;2.43;;
16922;SDS011;8578;50.938;13.556;2022-11-18T00:36:27;4.60;;;2.50;;
16922;SDS011;8578;50.938;13.556;2022-11-18T00:38:56;4.33;;;2.83;;
16922;SDS011;8578;50.938;13.556;2022-11-18T00:41:23;5.27;;;2.80;;
16922;SDS011;8578;50.938;13.556;2022-11-18T00:44:11;4.07;;;2.63;;
16922;SDS011;8578;50.938;13.556;2022-11-18T00:46:37;3.27;;;2.53;;
16922;SDS011;8578;50.938;13.556;2022-11-18T00:49:05;3.73;;;2.57;;
16922;SDS011;8578;50.938;13.556;2022-11-18T00:51:32;3.63;;;2.57;;
16922;SDS011;8578;50.938;13.556;2022-11-18T00:54:01;4.50;;;3.00;;
16922;SDS011;8578;50.938;13.556;2022-11-18T00:58:56;7.07;;;4.20;;
16922;SDS011;8578;50.938;13.556;2022-11-18T01:01:24;8.27;;;4.60;;
16922;SDS011;8578;50.938;13.556;2022-11-18T01:03:52;9.90;;;5.50;;
16922;SDS011;8578;50.938;13.556;2022-11-18T01:06:20;7.87;;;4.73;;
16922;SDS011;8578;50.938;13.556;2022-11-18T01:08:48;7.27;;;4.40;;
16922;SDS011;8578;50.938;13.556;2022-11-18T01:11:17;8.60;;;5.20;;
16922;SDS011;8578;50.938;13.556;2022-11-18T01:14:01;7.97;;;4.43;;
16922;SDS011;8578;50.938;13.556;2022-11-18T01:16:29;7.43;;;4.77;;
16922;SDS011;8578;50.938;13.556;2022-11-18T01:18:57;7.90;;;4.70;;
16922;SDS011;8578;50.938;13.556;2022-11-18T01:21:24;9.83;;;4.97;;
16922;SDS011;8578;50.938;13.556;2022-11-18T01:23:52;7.37;;;4.47;;
16922;SDS011;8578;50.938;13.556;2022-11-18T01:26:21;9.53;;;4.50;;
16922;SDS011;8578;50.938;13.556;2022-11-18T01:28:48;8.13;;;4.73;;
16922;SDS011;8578;50.938;13.556;2022-11-18T01:31:17;7.63;;;4.80;;
16922;SDS011;8578;50.938;13.556;2022-11-18T01:33:45;7.53;;;4.67;;
16922;SDS011;8578;50.938;13.556;2022-11-18T01:36:16;10.40;;;5.10;;
16922;SDS011;8578;50.938;13.556;2022-11-18T01:38:44;9.57;;;4.83;;
16922;SDS011;8578;50.938;13.556;2022-11-18T01:41:12;8.23;;;4.90;;
16922;SDS011;8578;50.938;13.556;2022-11-18T01:43:51;11.47;;;6.00;;
16922;SDS011;8578;50.938;13.556;2022-11-18T01:46:20;11.10;;;5.97;;
16922;SDS011;8578;50.938;13.556;2022-11-18T01:48:48;14.53;;;6.90;;
16922;SDS011;8578;50.938;13.556;2022-11-18T01:51:17;11.07;;;6.63;;
16922;SDS011;8578;50.938;13.556;2022-11-18T01:53:46;12.87;;;6.70;;
16922;SDS011;8578;50.938;13.556;2022-11-18T01:56:15;12.93;;;6.63;;
16922;SDS011;8578;50.938;13.556;2022-11-18T01:58:44;12.40;;;7.00;;
16922;SDS011;8578;50.938;13.556;2022-11-18T02:01:14;12.30;;;6.97;;
16922;SDS011;8578;50.938;13.556;2022-11-18T02:03:42;10.67;;;6.27;;
16922;SDS011;8578;50.938;13.556;2022-11-18T02:06:12;12.10;;;7.03;;
16922;SDS011;8578;50.938;13.556;2022-11-18T02:08:39;17.00;;;6.80;;
16922;SDS011;8578;50.938;13.556;2022-11-18T02:11:08;12.97;;;7.50;;
16922;SDS011;8578;50.938;13.556;2022-11-18T02:13:56;12.40;;;6.47;;
16922;SDS011;8578;50.938;13.556;2022-11-18T02:16:27;12.63;;;7.27;;
16922;SDS011;8578;50.938;13.556;2022-11-18T02:18:57;10.83;;;6.37;;
16922;SDS011;8578;50.938;13.556;2022-11-18T02:21:27;12.30;;;7.00;;
16922;SDS011;8578;50.938;13.556;2022-11-18T02:24:06;14.27;;;7.30;;
16922;SDS011;8578;50.938;13.556;2022-11-18T02:27:00;15.53;;;7.80;;
16922;SDS011;8578;50.938;13.556;2022-11-18T02:29:36;12.60;;;6.97;;
16922;SDS011;8578;50.938;13.556;2022-11-18T02:32:08;14.80;;;7.70;;
16922;SDS011;8578;50.938;13.556;2022-11-18T02:34:39;15.30;;;7.50;;
16922;SDS011;8578;50.938;13.556;2022-11-18T02:37:09;13.30;;;7.73;;
16922;SDS011;8578;50.938;13.556;2022-11-18T02:39:41;15.20;;;7.47;;
16922;SDS011;8578;50.938;13.556;2022-11-18T02:42:11;13.53;;;7.23;;
16922;SDS011;8578;50.938;13.556;2022-11-18T02:44:41;14.57;;;7.90;;
16922;SDS011;8578;50.938;13.556;2022-11-18T02:47:10;13.77;;;7.97;;
16922;SDS011;8578;50.938;13.556;2022-11-18T02:49:40;15.07;;;7.87;;
16922;SDS011;8578;50.938;13.556;2022-11-18T02:52:08;15.63;;;7.93;;
16922;SDS011;8578;50.938;13.556;2022-11-18T02:54:36;13.93;;;8.00;;
16922;SDS011;8578;50.938;13.556;2022-11-18T02:57:05;14.73;;;8.27;;
16922;SDS011;8578;50.938;13.556;2022-11-18T02:59:33;14.30;;;8.40;;
16922;SDS011;8578;50.938;13.556;2022-11-18T03:02:02;16.43;;;8.03;;
16922;SDS011;8578;50.938;13.556;2022-11-18T03:04:30;14.37;;;7.83;;
16922;SDS011;8578;50.938;13.556;2022-11-18T03:07:01;15.90;;;8.07;;
16922;SDS011;8578;50.938;13.556;2022-11-18T03:09:31;14.97;;;7.53;;
16922;SDS011;8578;50.938;13.556;2022-11-18T03:12:02;14.10;;;7.70;;
16922;SDS011;8578;50.938;13.556;2022-11-18T03:14:34;15.20;;;7.90;;
16922;SDS011;8578;50.938;13.556;2022-11-18T03:17:06;15.77;;;8.80;;
16922;SDS011;8578;50.938;13.556;2022-11-18T03:19:39;16.33;;;7.80;;
16922;SDS011;8578;50.938;13.556;2022-11-18T03:22:09;32.17;;;9.17;;
16922;SDS011;8578;50.938;13.556;2022-11-18T03:24:38;20.67;;;7.93;;
16922;SDS011;8578;50.938;13.556;2022-11-18T03:27:08;29.00;;;8.43;;
16922;SDS011;8578;50.938;13.556;2022-11-18T03:29:39;26.47;;;9.47;;
16922;SDS011;8578;50.938;13.556;2022-11-18T03:32:10;19.53;;;7.90;;
16922;SDS011;8578;50.938;13.556;2022-11-18T03:34:40;17.33;;;7.97;;
16922;SDS011;8578;50.938;13.556;2022-11-18T03:37:09;12.30;;;7.60;;
16922;SDS011;8578;50.938;13.556;2022-11-18T03:39:38;16.40;;;8.70;;
16922;SDS011;8578;50.938;13.556;2022-11-18T03:42:08;16.67;;;8.47;;
16922;SDS011;8578;50.938;13.556;2022-11-18T03:44:38;15.27;;;7.90;;
16922;SDS011;8578;50.938;13.556;2022-11-18T03:47:07;13.67;;;8.33;;
16922;SDS011;8578;50.938;13.556;2022-11-18T03:49:39;14.83;;;8.03;;
16922;SDS011;8578;50.938;13.556;2022-11-18T03:52:09;14.97;;;8.40;;
16922;SDS011;8578;50.938;13.556;2022-11-18T03:54:37;13.20;;;7.53;;
16922;SDS011;8578;50.938;13.556;2022-11-18T03:57:08;14.17;;;7.53;;
16922;SDS011;8578;50.938;13.556;2022-11-18T03:59:39;14.90;;;7.80;;
16922;SDS011;8578;50.938;13.556;2022-11-18T04:02:08;14.33;;;7.40;;
16922;SDS011;8578;50.938;13.556;2022-11-18T04:04:38;16.30;;;8.00;;
16922;SDS011;8578;50.938;13.556;2022-11-18T04:07:07;13.63;;;7.47;;
16922;SDS011;8578;50.938;13.556;2022-11-18T04:09:37;15.63;;;8.70;;
16922;SDS011;8578;50.938;13.556;2022-11-18T04:12:07;16.93;;;8.40;;
16922;SDS011;8578;50.938;13.556;2022-11-18T04:14:37;15.23;;;8.13;;
16922;SDS011;8578;50.938;13.556;2022-11-18T04:17:06;14.23;;;8.13;;
16922;SDS011;8578;50.938;13.556;2022-11-18T04:19:34;16.33;;;8.23;;
16922;SDS011;8578;50.938;13.556;2022-11-18T04:22:03;13.77;;;8.03;;
16922;SDS011;8578;50.938;13.556;2022-11-18T04:24:31;14.50;;;8.57;;
16922;SDS011;8578;50.938;13.556;2022-11-18T04:26:58;14.13;;;7.77;;
16922;SDS011;8578;50.938;13.556;2022-11-18T04:29:26;13.47;;;7.97;;
16922;SDS011;8578;50.938;13.556;2022-11-18T04:31:53;14.77;;;8.07;;
16922;SDS011;8578;50.938;13.556;2022-11-18T04:34:20;18.47;;;8.37;;
16922;SDS011;8578;50.938;13.556;2022-11-18T04:36:48;15.90;;;7.50;;
16922;SDS011;8578;50.938;13.556;2022-11-18T04:39:17;17.40;;;7.77;;
16922;SDS011;8578;50.938;13.556;2022-11-18T04:41:44;15.37;;;7.77;;
16922;SDS011;8578;50.938;13.556;2022-11-18T04:44:24;16.83;;;7.93;;
16922;SDS011;8578;50.938;13.556;2022-11-18T04:46:52;23.23;;;8.40;;
16922;SDS011;8578;50.938;13.556;2022-11-18T04:49:21;17.67;;;8.57;;
16922;SDS011;8578;50.938;13.556;2022-11-18T04:51:49;21.63;;;8.70;;
16922;SDS011;8578;50.938;13.556;2022-11-18T04:54:17;38.47;;;9.07;;
16922;SDS011;8578;50.938;13.556;2022-11-18T04:56:45;107.53;;;10.53;;
16922;SDS011;8578;50.938;13.556;2022-11-18T04:59:16;35.53;;;8.83;;
16922;SDS011;8578;50.938;13.556;2022-11-18T05:01:44;106.70;;;10.43;;
16922;SDS011;8578;50.938;13.556;2022-11-18T05:04:12;42.83;;;9.27;;
16922;SDS011;8578;50.938;13.556;2022-11-18T05:06:39;98.50;;;9.50;;
16922;SDS011;8578;50.938;13.556;2022-11-18T05:09:08;26.77;;;9.67;;
16922;SDS011;8578;50.938;13.556;2022-11-18T05:11:37;127.17;;;11.20;;
16922;SDS011;8578;50.938;13.556;2022-11-18T05:14:23;54.47;;;9.33;;
16922;SDS011;8578;50.938;13.556;2022-11-18T05:16:51;40.10;;;8.53;;
16922;SDS011;8578;50.938;13.556;2022-11-18T05:19:19;109.07;;;9.00;;
16922;SDS011;8578;50.938;13.556;2022-11-18T05:21:46;22.93;;;7.47;;
16922;SDS011;8578;50.938;13.556;2022-11-18T05:24:14;66.77;;;8.73;;
16922;SDS011;8578;50.938;13.556;2022-11-18T05:26:43;141.67;;;10.00;;
16922;SDS011;8578;50.938;13.556;2022-11-18T05:29:11;105.67;;;9.23;;
16922;SDS011;8578;50.938;13.556;2022-11-18T05:31:38;98.43;;;9.17;;
16922;SDS011;8578;50.938;13.556;2022-11-18T05:34:06;32.93;;;8.47;;
16922;SDS011;8578;50.938;13.556;2022-11-18T05:36:34;129.00;;;10.17;;
16922;SDS011;8578;50.938;13.556;2022-11-18T05:39:01;52.73;;;8.60;;
16922;SDS011;8578;50.938;13.556;2022-11-18T05:41:29;97.27;;;9.33;;
16922;SDS011;8578;50.938;13.556;2022-11-18T05:44:15;75.73;;;8.87;;
16922;SDS011;8578;50.938;13.556;2022-11-18T05:46:43;64.00;;;8.93;;
16922;SDS011;8578;50.938;13.556;2022-11-18T05:49:10;45.37;;;8.70;;
16922;SDS011;8578;50.938;13.556;2022-11-18T05:51:37;84.20;;;9.40;;
16922;SDS011;8578;50.938;13.556;2022-11-18T05:54:06;35.03;;;8.73;;
16922;SDS011;8578;50.938;13.556;2022-11-18T05:56:35;60.20;;;9.20;;
16922;SDS011;8578;50.938;13.556;2022-11-18T05:59:02;56.30;;;8.87;;
16922;SDS011;8578;50.938;13.556;2022-11-18T06:01:32;17.83;;;8.63;;
16922;SDS011;8578;50.938;13.556;2022-11-18T06:04:02;17.00;;;8.23;;
16922;SDS011;8578;50.938;13.556;2022-11-18T06:06:30;18.40;;;8.80;;
16922;SDS011;8578;50.938;13.556;2022-11-18T06:08:58;30.73;;;10.43;;
16922;SDS011;8578;50.938;13.556;2022-11-18T06:11:26;45.23;;;9.80;;
16922;SDS011;8578;50.938;13.556;2022-11-18T06:13:55;34.83;;;9.57;;
16922;SDS011;8578;50.938;13.556;2022-11-18T06:16:26;25.60;;;9.97;;
16922;SDS011;8578;50.938;13.556;2022-11-18T06:18:55;58.53;;;10.43;;
16922;SDS011;8578;50.938;13.556;2022-11-18T06:21:23;26.13;;;9.93;;
16922;SDS011;8578;50.938;13.556;2022-11-18T06:23:50;76.47;;;12.93;;
16922;SDS011;8578;50.938;13.556;2022-11-18T06:26:18;133.93;;;11.73;;
16922;SDS011;8578;50.938;13.556;2022-11-18T06:28:46;30.80;;;9.93;;
16922;SDS011;8578;50.938;13.556;2022-11-18T06:31:14;27.33;;;9.80;;
16922;SDS011;8578;50.938;13.556;2022-11-18T06:33:42;54.47;;;9.60;;
16922;SDS011;8578;50.938;13.556;2022-11-18T06:36:11;76.53;;;10.63;;
16922;SDS011;8578;50.938;13.556;2022-11-18T06:38:38;42.23;;;9.23;;
16922;SDS011;8578;50.938;13.556;2022-11-18T06:41:05;59.37;;;9.93;;
16922;SDS011;8578;50.938;13.556;2022-11-18T06:43:33;200.30;;;11.80;;
16922;SDS011;8578;50.938;13.556;2022-11-18T06:46:08;39.50;;;8.13;;
16922;SDS011;8578;50.938;13.556;2022-11-18T06:48:54;16.43;;;7.47;;
16922;SDS011;8578;50.938;13.556;2022-11-18T06:51:23;11.50;;;6.40;;
16922;SDS011;8578;50.938;13.556;2022-11-18T06:53:51;11.80;;;6.20;;
16922;SDS011;8578;50.938;13.556;2022-11-18T06:56:19;12.63;;;6.63;;
16922;SDS011;8578;50.938;13.556;2022-11-18T06:58:51;11.73;;;6.53;;
16922;SDS011;8578;50.938;13.556;2022-11-18T07:01:19;15.57;;;7.73;;
16922;SDS011;8578;50.938;13.556;2022-11-18T07:03:47;29.00;;;7.67;;
16922;SDS011;8578;50.938;13.556;2022-11-18T07:06:16;17.03;;;7.70;;
16922;SDS011;8578;50.938;13.556;2022-11-18T07:08:45;19.33;;;7.63;;
16922;SDS011;8578;50.938;13.556;2022-11-18T07:11:13;43.30;;;8.20;;
16922;SDS011;8578;50.938;13.556;2022-11-18T07:13:41;48.03;;;8.53;;
16922;SDS011;8578;50.938;13.556;2022-11-18T07:16:10;31.17;;;8.47;;
16922;SDS011;8578;50.938;13.556;2022-11-18T07:18:38;16.97;;;8.53;;
16922;SDS011;8578;50.938;13.556;2022-11-18T07:21:07;17.30;;;8.47;;
16922;SDS011;8578;50.938;13.556;2022-11-18T07:23:35;13.87;;;7.30;;
16922;SDS011;8578;50.938;13.556;2022-11-18T07:26:04;13.00;;;7.10;;
16922;SDS011;8578;50.938;13.556;2022-11-18T07:28:31;8.43;;;5.13;;
16922;SDS011;8578;50.938;13.556;2022-11-18T07:30:59;8.73;;;4.30;;
16922;SDS011;8578;50.938;13.556;2022-11-18T07:33:27;8.50;;;4.77;;
16922;SDS011;8578;50.938;13.556;2022-11-18T07:35:54;9.40;;;5.13;;
16922;SDS011;8578;50.938;13.556;2022-11-18T07:38:22;7.67;;;4.30;;
16922;SDS011;8578;50.938;13.556;2022-11-18T07:40:49;7.53;;;4.47;;
16922;SDS011;8578;50.938;13.556;2022-11-18T07:43:18;13.07;;;4.93;;
16922;SDS011;8578;50.938;13.556;2022-11-18T07:45:45;10.10;;;5.70;;
16922;SDS011;8578;50.938;13.556;2022-11-18T07:48:13;12.10;;;5.70;;
16922;SDS011;8578;50.938;13.556;2022-11-18T07:50:40;9.50;;;4.60;;
16922;SDS011;8578;50.938;13.556;2022-11-18T07:53:12;7.80;;;4.67;;
16922;SDS011;8578;50.938;13.556;2022-11-18T07:55:40;10.17;;;5.17;;
16922;SDS011;8578;50.938;13.556;2022-11-18T07:58:07;9.33;;;5.13;;
16922;SDS011;8578;50.938;13.556;2022-11-18T08:00:36;10.47;;;5.67;;
16922;SDS011;8578;50.938;13.556;2022-11-18T08:03:03;10.17;;;5.70;;
16922;SDS011;8578;50.938;13.556;2022-11-18T08:05:31;48.50;;;29.70;;
16922;SDS011;8578;50.938;13.556;2022-11-18T08:07:59;13.53;;;7.33;;
16922;SDS011;8578;50.938;13.556;2022-11-18T08:10:26;11.77;;;6.37;;
16922;SDS011;8578;50.938;13.556;2022-11-18T08:12:54;13.80;;;6.80;;
16922;SDS011;8578;50.938;13.556;2022-11-18T08:15:22;8.13;;;4.47;;
16922;SDS011;8578;50.938;13.556;2022-11-18T08:17:50;8.47;;;5.13;;
16922;SDS011;8578;50.938;13.556;2022-11-18T08:20:18;11.33;;;5.47;;
16922;SDS011;8578;50.938;13.556;2022-11-18T08:22:45;9.97;;;6.10;;
16922;SDS011;8578;50.938;13.556;2022-11-18T08:25:13;15.93;;;6.83;;
16922;SDS011;8578;50.938;13.556;2022-11-18T08:27:40;19.10;;;5.70;;
16922;SDS011;8578;50.938;13.556;2022-11-18T08:30:08;10.17;;;5.37;;
16922;SDS011;8578;50.938;13.556;2022-11-18T08:32:36;13.17;;;5.70;;
16922;SDS011;8578;50.938;13.556;2022-11-18T08:35:05;10.77;;;5.83;;
16922;SDS011;8578;50.938;13.556;2022-11-18T08:37:36;9.53;;;4.83;;
16922;SDS011;8578;50.938;13.556;2022-11-18T08:40:04;10.00;;;5.33;;
16922;SDS011;8578;50.938;13.556;2022-11-18T08:42:32;10.57;;;5.30;;
16922;SDS011;8578;50.938;13.556;2022-11-18T08:45:00;8.77;;;4.87;;
16922;SDS011;8578;50.938;13.556;2022-11-18T08:47:27;10.10;;;5.80;;
16922;SDS011;8578;50.938;13.556;2022-11-18T08:49:55;11.53;;;5.83;;
16922;SDS011;8578;50.938;13.556;2022-11-18T08:52:24;15.33;;;6.33;;
16922;SDS011;8578;50.938;13.556;2022-11-18T08:54:51;28.50;;;5.97;;
16922;SDS011;8578;50.938;13.556;2022-11-18T08:57:19;17.60;;;6.03;;
16922;SDS011;8578;50.938;13.556;2022-11-18T08:59:46;10.70;;;5.37;;
16922;SDS011;8578;50.938;13.556;2022-11-18T09:02:14;11.43;;;5.90;;
16922;SDS011;8578;50.938;13.556;2022-11-18T09:04:41;12.13;;;5.53;;
16922;SDS011;8578;50.938;13.556;2022-11-18T09:07:12;6.23;;;3.70;;
16922;SDS011;8578;50.938;13.556;2022-11-18T09:09:41;8.77;;;5.03;;
16922;SDS011;8578;50.938;13.556;2022-11-18T09:12:08;11.63;;;5.80;;
16922;SDS011;8578;50.938;13.556;2022-11-18T09:14:40;9.17;;;5.37;;
16922;SDS011;8578;50.938;13.556;2022-11-18T09:17:27;10.17;;;5.03;;
16922;SDS011;8578;50.938;13.556;2022-11-18T09:19:55;10.03;;;5.13;;
16922;SDS011;8578;50.938;13.556;2022-11-18T09:22:22;10.37;;;5.17;;
16922;SDS011;8578;50.938;13.556;2022-11-18T09:24:51;8.80;;;5.17;;
16922;SDS011;8578;50.938;13.556;2022-11-18T09:27:18;10.83;;;5.63;;
16922;SDS011;8578;50.938;13.556;2022-11-18T09:29:46;9.23;;;5.00;;
16922;SDS011;8578;50.938;13.556;2022-11-18T09:32:14;9.77;;;5.50;;
16922;SDS011;8578;50.938;13.556;2022-11-18T09:34:41;11.43;;;6.20;;
16922;SDS011;8578;50.938;13.556;2022-11-18T09:37:09;10.87;;;5.37;;
16922;SDS011;8578;50.938;13.556;2022-11-18T09:39:37;8.90;;;4.80;;
16922;SDS011;8578;50.938;13.556;2022-11-18T09:42:09;11.40;;;5.87;;
16922;SDS011;8578;50.938;13.556;2022-11-18T09:44:40;11.87;;;6.50;;
16922;SDS011;8578;50.938;13.556;2022-11-18T09:47:13;17.90;;;7.73;;
16922;SDS011;8578;50.938;13.556;2022-11-18T09:49:47;19.43;;;8.20;;
16922;SDS011;8578;50.938;13.556;2022-11-18T09:52:15;19.60;;;8.93;;
16922;SDS011;8578;50.938;13.556;2022-11-18T09:54:43;23.43;;;9.97;;
16922;SDS011;8578;50.938;13.556;2022-11-18T09:57:13;16.27;;;7.77;;
16922;SDS011;8578;50.938;13.556;2022-11-18T09:59:41;14.97;;;7.60;;
16922;SDS011;8578;50.938;13.556;2022-11-18T10:02:25;16.17;;;8.47;;
16922;SDS011;8578;50.938;13.556;2022-11-18T10:04:54;17.57;;;8.37;;
16922;SDS011;8578;50.938;13.556;2022-11-18T10:07:23;27.60;;;10.80;;
16922;SDS011;8578;50.938;13.556;2022-11-18T10:09:55;19.30;;;10.00;;
16922;SDS011;8578;50.938;13.556;2022-11-18T10:12:26;16.93;;;9.13;;
16922;SDS011;8578;50.938;13.556;2022-11-18T10:15:06;16.97;;;9.20;;
16922;SDS011;8578;50.938;13.556;2022-11-18T10:17:43;21.90;;;10.37;;
16922;SDS011;8578;50.938;13.556;2022-11-18T10:20:19;42.17;;;9.90;;
16922;SDS011;8578;50.938;13.556;2022-11-18T10:22:49;21.27;;;10.57;;
16922;SDS011;8578;50.938;13.556;2022-11-18T10:25:18;21.50;;;10.93;;
16922;SDS011;8578;50.938;13.556;2022-11-18T10:27:47;23.53;;;10.17;;
16922;SDS011;8578;50.938;13.556;2022-11-18T10:30:16;30.70;;;10.90;;
16922;SDS011;8578;50.938;13.556;2022-11-18T10:32:54;19.83;;;10.27;;
16922;SDS011;8578;50.938;13.556;2022-11-18T10:35:23;21.77;;;9.03;;
16922;SDS011;8578;50.938;13.556;2022-11-18T10:37:58;26.97;;;10.60;;
16922;SDS011;8578;50.938;13.556;2022-11-18T10:40:34;31.37;;;9.97;;
16922;SDS011;8578;50.938;13.556;2022-11-18T10:43:05;16.73;;;9.13;;
16922;SDS011;8578;50.938;13.556;2022-11-18T10:45:32;28.17;;;9.77;;
16922;SDS011;8578;50.938;13.556;2022-11-18T10:48:01;45.00;;;9.13;;
16922;SDS011;8578;50.938;13.556;2022-11-18T10:50:33;68.60;;;10.77;;
16922;SDS011;8578;50.938;13.556;2022-11-18T10:53:01;25.57;;;9.50;;
16922;SDS011;8578;50.938;13.556;2022-11-18T10:55:29;19.80;;;9.83;;
16922;SDS011;8578;50.938;13.556;2022-11-18T10:57:58;26.80;;;9.87;;
16922;SDS011;8578;50.938;13.556;2022-11-18T11:00:35;33.27;;;9.93;;
16922;SDS011;8578;50.938;13.556;2022-11-18T11:03:23;22.07;;;10.00;;
16922;SDS011;8578;50.938;13.556;2022-11-18T11:08:43;24.33;;;11.47;;
16922;SDS011;8578;50.938;13.556;2022-11-18T11:11:18;23.67;;;10.80;;
16922;SDS011;8578;50.938;13.556;2022-11-18T11:13:51;20.07;;;10.67;;
16922;SDS011;8578;50.938;13.556;2022-11-18T11:16:21;21.43;;;9.97;;
16922;SDS011;8578;50.938;13.556;2022-11-18T11:18:52;20.63;;;9.93;;
16922;SDS011;8578;50.938;13.556;2022-11-18T11:21:21;17.77;;;7.33;;
16922;SDS011;8578;50.938;13.556;2022-11-18T11:23:50;19.13;;;9.10;;
16922;SDS011;8578;50.938;13.556;2022-11-18T11:26:18;19.20;;;9.70;;
16922;SDS011;8578;50.938;13.556;2022-11-18T11:29:10;17.57;;;8.13;;
16922;SDS011;8578;50.938;13.556;2022-11-18T11:31:43;12.90;;;6.57;;
16922;SDS011;8578;50.938;13.556;2022-11-18T11:34:14;22.47;;;12.27;;
16922;SDS011;8578;50.938;13.556;2022-11-18T11:36:45;13.23;;;7.00;;
16922;SDS011;8578;50.938;13.556;2022-11-18T11:39:22;13.47;;;7.37;;
16922;SDS011;8578;50.938;13.556;2022-11-18T11:41:53;12.90;;;7.73;;
16922;SDS011;8578;50.938;13.556;2022-11-18T11:44:30;8.17;;;4.27;;
16922;SDS011;8578;50.938;13.556;2022-11-18T11:47:03;7.93;;;4.10;;
16922;SDS011;8578;50.938;13.556;2022-11-18T11:49:53;9.63;;;5.07;;
16922;SDS011;8578;50.938;13.556;2022-11-18T11:52:27;10.07;;;5.73;;
16922;SDS011;8578;50.938;13.556;2022-11-18T11:54:56;10.47;;;5.53;;
16922;SDS011;8578;50.938;13.556;2022-11-18T11:57:31;8.27;;;4.10;;
16922;SDS011;8578;50.938;13.556;2022-11-18T12:00:03;10.87;;;5.33;;
16922;SDS011;8578;50.938;13.556;2022-11-18T12:05:23;11.53;;;6.13;;
16922;SDS011;8578;50.938;13.556;2022-11-18T12:07:56;10.47;;;5.03;;
16922;SDS011;8578;50.938;13.556;2022-11-18T12:10:36;10.00;;;5.30;;
16922;SDS011;8578;50.938;13.556;2022-11-18T12:13:14;9.60;;;4.93;;
16922;SDS011;8578;50.938;13.556;2022-11-18T12:15:46;11.53;;;4.57;;
16922;SDS011;8578;50.938;13.556;2022-11-18T12:18:18;11.93;;;5.47;;
16922;SDS011;8578;50.938;13.556;2022-11-18T12:20:49;10.93;;;5.40;;
16922;SDS011;8578;50.938;13.556;2022-11-18T12:23:18;11.10;;;5.60;;
16922;SDS011;8578;50.938;13.556;2022-11-18T12:25:50;9.13;;;4.83;;
16922;SDS011;8578;50.938;13.556;2022-11-18T12:28:21;10.27;;;5.27;;
16922;SDS011;8578;50.938;13.556;2022-11-18T12:30:49;11.00;;;5.20;;
16922;SDS011;8578;50.938;13.556;2022-11-18T12:33:17;13.03;;;6.27;;
16922;SDS011;8578;50.938;13.556;2022-11-18T12:35:45;12.47;;;6.43;;
16922;SDS011;8578;50.938;13.556;2022-11-18T12:38:27;10.73;;;5.73;;
16922;SDS011;8578;50.938;13.556;2022-11-18T12:40:55;12.83;;;6.27;;
16922;SDS011;8578;50.938;13.556;2022-11-18T12:51:57;16.80;;;9.23;;
16922;SDS011;8578;50.938;13.556;2022-11-18T12:54:27;17.00;;;9.43;;
16922;SDS011;8578;50.938;13.556;2022-11-18T12:56:57;20.03;;;9.73;;
16922;SDS011;8578;50.938;13.556;2022-11-18T12:59:25;18.50;;;9.47;;
16922;SDS011;8578;50.938;13.556;2022-11-18T13:02:04;22.60;;;9.50;;
16922;SDS011;8578;50.938;13.556;2022-11-18T13:04:32;20.43;;;9.83;;
16922;SDS011;8578;50.938;13.556;2022-11-18T13:06:59;23.87;;;10.80;;
16922;SDS011;8578;50.938;13.556;2022-11-18T13:09:29;24.47;;;12.23;;
16922;SDS011;8578;50.938;13.556;2022-11-18T13:11:59;27.27;;;13.87;;
16922;SDS011;8578;50.938;13.556;2022-11-18T13:14:28;15.80;;;8.87;;
16922;SDS011;8578;50.938;13.556;2022-11-18T13:17:24;24.60;;;12.27;;
16922;SDS011;8578;50.938;13.556;2022-11-18T13:20:19;23.53;;;11.23;;
16922;SDS011;8578;50.938;13.556;2022-11-18T13:22:50;23.20;;;10.67;;
16922;SDS011;8578;50.938;13.556;2022-11-18T13:25:37;23.87;;;11.60;;
16922;SDS011;8578;50.938;13.556;2022-11-18T13:28:08;23.73;;;11.10;;
16922;SDS011;8578;50.938;13.556;2022-11-18T13:30:41;21.17;;;11.13;;
16922;SDS011;8578;50.938;13.556;2022-11-18T13:33:10;18.10;;;8.20;;
16922;SDS011;8578;50.938;13.556;2022-11-18T13:35:39;17.17;;;7.90;;
16922;SDS011;8578;50.938;13.556;2022-11-18T13:38:15;20.93;;;10.90;;
16922;SDS011;8578;50.938;13.556;2022-11-18T13:40:52;25.57;;;11.77;;
16922;SDS011;8578;50.938;13.556;2022-11-18T13:43:36;24.57;;;10.73;;
16922;SDS011;8578;50.938;13.556;2022-11-18T13:46:06;22.60;;;11.47;;
16922;SDS011;8578;50.938;13.556;2022-11-18T13:48:36;17.63;;;9.07;;
16922;SDS011;8578;50.938;13.556;2022-11-18T13:51:05;23.03;;;11.17;;
16922;SDS011;8578;50.938;13.556;2022-11-18T13:53:33;17.50;;;9.10;;
16922;SDS011;8578;50.938;13.556;2022-11-18T13:56:04;24.03;;;11.80;;
16922;SDS011;8578;50.938;13.556;2022-11-18T13:58:33;25.67;;;11.97;;
16922;SDS011;8578;50.938;13.556;2022-11-18T14:01:22;23.57;;;10.40;;
16922;SDS011;8578;50.938;13.556;2022-11-18T14:03:51;21.97;;;11.23;;
16922;SDS011;8578;50.938;13.556;2022-11-18T14:06:23;24.87;;;12.30;;
16922;SDS011;8578;50.938;13.556;2022-11-18T14:08:50;19.20;;;9.80;;
16922;SDS011;8578;50.938;13.556;2022-11-18T14:11:34;22.90;;;11.57;;
16922;SDS011;8578;50.938;13.556;2022-11-18T14:14:02;20.40;;;10.40;;
16922;SDS011;8578;50.938;13.556;2022-11-18T14:16:30;20.30;;;10.50;;
16922;SDS011;8578;50.938;13.556;2022-11-18T14:18:58;20.27;;;10.43;;
16922;SDS011;8578;50.938;13.556;2022-11-18T14:21:26;16.67;;;8.83;;
16922;SDS011;8578;50.938;13.556;2022-11-18T14:23:54;22.47;;;10.13;;
16922;SDS011;8578;50.938;13.556;2022-11-18T14:26:25;20.90;;;10.20;;
16922;SDS011;8578;50.938;13.556;2022-11-18T14:28:55;21.60;;;10.40;;
16922;SDS011;8578;50.938;13.556;2022-11-18T14:31:23;22.70;;;9.20;;
16922;SDS011;8578;50.938;13.556;2022-11-18T14:36:36;21.43;;;9.87;;
16922;SDS011;8578;50.938;13.556;2022-11-18T14:39:11;19.30;;;10.00;;
16922;SDS011;8578;50.938;13.556;2022-11-18T14:41:52;28.17;;;12.83;;
16922;SDS011;8578;50.938;13.556;2022-11-18T14:44:21;24.57;;;12.07;;
16922;SDS011;8578;50.938;13.556;2022-11-18T14:46:51;24.47;;;11.73;;
16922;SDS011;8578;50.938;13.556;2022-11-18T14:49:20;22.73;;;11.20;;
16922;SDS011;8578;50.938;13.556;2022-11-18T14:51:49;24.03;;;11.63;;
16922;SDS011;8578;50.938;13.556;2022-11-18T14:54:17;27.23;;;12.90;;
16922;SDS011;8578;50.938;13.556;2022-11-18T14:56:53;22.30;;;11.37;;
16922;SDS011;8578;50.938;13.556;2022-11-18T14:59:22;26.47;;;12.90;;
16922;SDS011;8578;50.938;13.556;2022-11-18T15:01:51;23.23;;;11.20;;
16922;SDS011;8578;50.938;13.556;2022-11-18T15:04:19;26.10;;;12.30;;
16922;SDS011;8578;50.938;13.556;2022-11-18T15:06:47;27.30;;;11.87;;
16922;SDS011;8578;50.938;13.556;2022-11-18T15:09:15;27.50;;;13.97;;
16922;SDS011;8578;50.938;13.556;2022-11-18T15:11:42;26.23;;;10.83;;